Time;durP1;ratioP1;P1;durP2;ratioP2;P2;SDS_P1;SDS_P2;PMS_P1;PMS_P2;Temp;Humidity;BMP_temperature;BMP_pressure;BME280_temperature;BME280_humidity;BME280_pressure;Samples;Min_cycle;Max_cycle;Signal;HPM_P1;HPM_P2
2021/06/11 00:01:15;;;;;;;22.05;5.00;;;;;;;;;;3591097;39;20035;-62
2021/06/11 00:03:41;;;;;;;5.40;3.65;;;;;;;;;;3593260;39;20020;-61
2021/06/11 00:06:07;;;;;;;12.68;4.40;;;;;;;;;;3594033;39;20046;-62
2021/06/11 00:08:33;;;;;;;6.82;2.80;;;18.90;97.90;;;;;;3595425;39;20028;-62
2021/06/11 00:10:59;;;;;;;21.00;5.07;;;;;;;;;;3597292;39;20113;-62
2021/06/11 00:13:25;;;;;;;19.23;5.75;;;;;;;;;;3600486;39;20036;-62
2021/06/11 00:15:52;;;;;;;10.60;3.53;;;;;;;;;;3600916;39;20443;-62
2021/06/11 00:18:17;;;;;;;8.10;3.05;;;18.80;98.50;;;;;;3599492;39;20032;-62
2021/06/11 00:20:43;;;;;;;6.85;2.45;;;18.80;98.70;;;;;;3598198;39;20027;-61
2021/06/11 00:23:09;;;;;;;4.35;2.70;;;;;;;;;;3596872;39;20040;-62
2021/06/11 00:25:35;;;;;;;5.22;2.53;;;18.70;99.40;;;;;;3595669;39;20028;-62
2021/06/11 00:28:01;;;;;;;8.00;3.33;;;18.50;99.50;;;;;;3594673;39;20038;-62
2021/06/11 00:30:29;;;;;;;3.25;2.38;;;18.50;99.60;;;;;;3591151;39;20043;-62
2021/06/11 00:32:56;;;;;;;4.28;2.65;;;18.50;99.80;;;;;;3587871;39;20156;-62
2021/06/11 00:35:22;;;;;;;5.53;3.17;;;;;;;;;;3590955;39;20028;-62
2021/06/11 00:37:48;;;;;;;7.32;2.80;;;18.50;99.80;;;;;;3588315;39;20026;-62
2021/06/11 00:40:14;;;;;;;4.97;2.67;;;;;;;;;;3595910;39;20028;-62
2021/06/11 00:42:40;;;;;;;5.38;2.90;;;18.50;99.90;;;;;;3594354;39;20083;-62
2021/06/11 00:45:08;;;;;;;9.55;2.80;;;18.50;99.90;;;;;;3596707;39;20479;-62
2021/06/11 00:47:34;;;;;;;3.55;2.90;;;18.60;99.90;;;;;;3597992;39;20031;-62
2021/06/11 00:50:00;;;;;;;7.75;2.45;;;18.60;99.90;;;;;;3599270;39;20060;-62
2021/06/11 00:52:26;;;;;;;3.20;2.70;;;18.50;99.90;;;;;;3600257;39;20382;-62
2021/06/11 00:54:52;;;;;;;3.15;2.85;;;18.50;99.90;;;;;;3598628;39;20031;-62
2021/06/11 00:57:18;;;;;;;3.42;2.75;;;18.60;99.90;;;;;;3598113;39;20509;-62
2021/06/11 00:59:44;;;;;;;3.90;2.88;;;18.70;99.90;;;;;;3594219;39;20040;-62
2021/06/11 01:02:15;;;;;;;5.18;2.40;;;;;;;;;;3593988;39;20036;-62
2021/06/11 01:04:41;;;;;;;3.55;2.97;;;18.20;99.90;;;;;;3593973;39;20886;-62
2021/06/11 01:07:07;;;;;;;6.00;2.88;;;;;;;;;;3592242;39;20023;-62
2021/06/11 01:09:36;;;;;;;4.75;2.60;;;;;;;;;;3591613;39;20024;-62
2021/06/11 01:12:03;;;;;;;4.15;2.78;;;18.60;99.90;;;;;;3592361;39;20023;-62
2021/06/11 01:14:30;;;;;;;4.70;2.55;;;17.10;99.90;;;;;;3593910;39;20136;-62
2021/06/11 01:16:56;;;;;;;5.80;2.80;;;18.60;99.90;;;;;;3597455;39;20041;-62
2021/06/11 01:19:29;;;;;;;4.65;2.83;;;18.30;99.90;;;;;;3596211;39;20345;-62
2021/06/11 01:22:24;;;;;;;4.85;2.72;;;;;;;;;;3597116;39;20039;-62
2021/06/11 01:25:10;;;;;;;4.00;2.90;;;18.40;99.90;;;;;;3586162;39;20055;-62
2021/06/11 01:27:37;;;;;;;4.90;2.75;;;;;;;;;;3590545;39;20076;-62
2021/06/11 01:30:19;;;;;;;4.07;2.97;;;18.10;99.90;;;;;;3590922;39;20036;-61
2021/06/11 01:32:46;;;;;;;4.75;2.70;;;18.30;99.90;;;;;;3593348;39;20028;-62
2021/06/11 01:35:20;;;;;;;3.55;3.03;;;18.30;99.90;;;;;;3595205;39;20036;-62
2021/06/11 01:37:51;;;;;;;3.53;2.90;;;18.00;99.90;;;;;;3596171;39;20020;-62
2021/06/11 01:40:18;;;;;;;3.10;2.65;;;18.30;99.90;;;;;;3594978;39;20028;-62
2021/06/11 01:42:47;;;;;;;4.28;3.15;;;18.00;99.90;;;;;;3588419;39;20047;-62
2021/06/11 01:45:14;;;;;;;4.38;3.30;;;18.40;99.90;;;;;;3599303;39;20035;-62
2021/06/11 01:47:51;;;;;;;3.92;3.30;;;18.00;99.90;;;;;;3594404;39;20035;-62
2021/06/11 01:50:27;;;;;;;5.97;3.83;;;18.10;99.90;;;;;;3591271;39;20571;-62
2021/06/11 01:52:55;;;;;;;3.00;2.63;;;18.60;99.90;;;;;;3593425;39;20028;-62
2021/06/11 01:55:22;;;;;;;3.15;2.67;;;18.20;99.90;;;;;;3594092;39;20040;-63
2021/06/11 01:57:48;;;;;;;6.95;3.05;;;18.20;99.90;;;;;;3595053;39;20787;-62
2021/06/11 02:00:17;;;;;;;4.05;3.03;;;18.20;99.90;;;;;;3592539;39;20025;-62
2021/06/11 02:02:44;;;;;;;4.57;3.28;;;18.10;99.90;;;;;;3592587;39;20598;-62
2021/06/11 02:05:10;;;;;;;4.22;3.08;;;18.20;99.90;;;;;;3595862;39;20047;-62
2021/06/11 02:07:37;;;;;;;5.20;3.03;;;18.60;99.90;;;;;;3592003;39;20048;-62
2021/06/11 02:10:07;;;;;;;4.18;3.10;;;;;;;;;;3596051;39;20023;-62
2021/06/11 02:12:32;;;;;;;5.97;3.17;;;18.20;99.90;;;;;;3595386;39;20028;-62
2021/06/11 02:15:00;;;;;;;3.08;2.78;;;;;;;;;;3593899;39;20052;-61
2021/06/11 02:17:26;;;;;;;4.63;3.40;;;18.40;99.90;;;;;;3593179;39;20052;-62
2021/06/11 02:19:53;;;;;;;8.10;3.40;;;18.20;99.90;;;;;;3590908;39;20854;-62
2021/06/11 02:22:19;;;;;;;4.13;3.15;;;18.10;99.90;;;;;;3592849;39;20077;-62
2021/06/11 02:24:45;;;;;;;4.53;3.20;;;18.30;99.90;;;;;;3597913;39;20031;-62
2021/06/11 02:27:11;;;;;;;3.78;3.10;;;22.50;99.90;;;;;;3592419;39;20039;-62
2021/06/11 02:29:38;;;;;;;6.13;3.53;;;18.10;99.90;;;;;;3593552;39;20062;-62
2021/06/11 02:32:05;;;;;;;4.15;3.30;;;;;;;;;;3595537;39;20108;-62
2021/06/11 02:34:31;;;;;;;4.82;3.28;;;;;;;;;;3592829;39;20037;-63
2021/06/11 02:36:58;;;;;;;4.00;3.13;;;;;;;;;;3596353;39;20035;-61
2021/06/11 02:39:24;;;;;;;5.32;3.83;;;;;;;;;;3598303;39;20725;-62
2021/06/11 02:41:58;;;;;;;6.30;3.83;;;;;;;;;;3597601;39;20034;-62
2021/06/11 02:44:25;;;;;;;6.32;3.58;;;;;;;;;;3591448;39;20936;-61
2021/06/11 02:46:52;;;;;;;3.90;3.40;;;;;;;;;;3592418;39;20117;-61
2021/06/11 02:49:32;;;;;;;6.78;3.22;;;;;;;;;;3593299;39;20798;-62
2021/06/11 02:52:00;;;;;;;3.90;3.50;;;;;;;;;;3594461;39;20071;-62
2021/06/11 02:54:28;;;;;;;5.95;3.42;;;;;;;;;;3596452;39;20023;-61
2021/06/11 02:56:57;;;;;;;4.47;3.30;;;;;;;;;;3597804;39;20026;-62
2021/06/11 02:59:28;;;;;;;8.05;3.33;;;;;;;;;;3599692;39;20094;-62
2021/06/11 03:01:57;;;;;;;5.65;3.72;;;;;;;;;;3598797;39;20784;-62
2021/06/11 03:04:24;;;;;;;4.95;3.58;;;;;;;;;;3596954;39;20040;-62
2021/06/11 03:06:50;;;;;;;4.95;3.33;;;;;;;;;;3593155;39;20053;-62
2021/06/11 03:09:20;;;;;;;4.70;3.40;;;;;;;;;;3594717;39;20040;-62
2021/06/11 03:11:48;;;;;;;7.80;3.60;;;18.00;99.90;;;;;;3591784;39;20020;-62
2021/06/11 03:14:14;;;;;;;3.60;3.20;;;;;;;;;;3596258;39;20032;-62
2021/06/11 03:16:43;;;;;;;5.00;3.60;;;;;;;;;;3598703;39;20046;-61
2021/06/11 03:19:10;;;;;;;7.13;3.50;;;;;;;;;;3599288;39;20027;-61
2021/06/11 03:21:38;;;;;;;8.05;3.90;;;;;;;;;;3598374;39;20040;-62
2021/06/11 03:24:12;;;;;;;5.95;4.00;;;;;;;;;;3597642;39;20032;-62
2021/06/11 03:26:46;;;;;;;5.13;4.20;;;;;;;;;;3596610;39;20027;-62
2021/06/11 03:29:14;;;;;;;7.88;4.05;;;;;;;;;;3594056;39;20278;-62
2021/06/11 03:31:42;;;;;;;11.88;4.00;;;;;;;;;;3601426;39;20056;-62
2021/06/11 03:34:12;;;;;;;8.90;4.13;;;;;;;;;;3598280;39;20035;-62
2021/06/11 03:36:40;;;;;;;5.78;3.83;;;;;;;;;;3599029;39;20028;-62
2021/06/11 03:39:07;;;;;;;5.30;3.67;;;;;;;;;;3599350;39;20032;-64
2021/06/11 03:41:36;;;;;;;6.88;3.90;;;;;;;;;;3591531;39;20146;-62
2021/06/11 03:44:07;;;;;;;5.40;4.00;;;;;;;;;;3593717;39;20031;-62
2021/06/11 03:46:34;;;;;;;5.63;3.90;;;;;;;;;;3595002;39;20032;-61
2021/06/11 03:49:01;;;;;;;6.43;3.97;;;;;;;;;;3594709;39;20344;-62
2021/06/11 03:51:28;;;;;;;4.82;3.97;;;;;;;;;;3593398;39;20064;-61
2021/06/11 03:53:55;;;;;;;7.88;3.88;;;;;;;;;;3592309;39;20024;-62
2021/06/11 03:56:22;;;;;;;5.03;3.90;;;;;;;;;;3591322;39;20495;-61
2021/06/11 03:58:50;;;;;;;5.50;4.10;;;;;;;;;;3591718;39;20120;-62
2021/06/11 04:01:18;;;;;;;6.78;4.35;;;;;;;;;;3593334;39;20023;-62
2021/06/11 04:03:43;;;;;;;8.00;4.38;;;17.90;99.90;;;;;;3593683;39;20028;-62
2021/06/11 04:06:42;;;;;;;4.47;3.95;;;;;;;;;;3594646;39;20125;-62
2021/06/11 04:09:13;;;;;;;4.45;3.95;;;;;;;;;;3575078;39;20044;-62
2021/06/11 04:11:45;;;;;;;7.63;4.22;;;;;;;;;;3594387;39;20028;-63
2021/06/11 04:14:14;;;;;;;5.63;3.92;;;;;;;;;;3589741;39;20035;-61
2021/06/11 04:16:43;;;;;;;6.32;4.60;;;;;;;;;;3595383;39;20059;-62
2021/06/11 04:19:11;;;;;;;6.97;4.22;;;;;;;;;;3597300;39;20039;-62
2021/06/11 04:21:38;;;;;;;6.10;4.20;;;17.60;99.90;;;;;;3597454;39;20705;-62
2021/06/11 04:24:05;;;;;;;5.15;4.07;;;;;;;;;;3595904;39;20598;-62
2021/06/11 04:26:34;;;;;;;8.02;5.47;;;;;;;;;;3593890;39;20039;-62
2021/06/11 04:29:06;;;;;;;6.85;4.95;;;17.70;99.90;;;;;;3595154;39;20059;-62
2021/06/11 04:31:31;;;;;;;7.40;5.00;;;17.80;99.90;;;;;;3599969;39;20735;-62
2021/06/11 04:33:58;;;;;;;5.82;4.47;;;17.50;99.90;;;;;;3600993;39;20132;-61
2021/06/11 04:36:25;;;;;;;4.88;4.22;;;;;;;;;;3599080;39;20031;-61
2021/06/11 04:39:01;;;;;;;4.90;3.90;;;;;;;;;;3598412;39;20404;-62
2021/06/11 04:41:28;;;;;;;9.20;4.80;;;;;;;;;;3596391;39;20064;-63
2021/06/11 04:43:56;;;;;;;7.15;4.43;;;;;;;;;;3596288;39;20038;-63
2021/06/11 04:46:23;;;;;;;6.82;4.32;;;;;;;;;;3599270;39;20027;-63
2021/06/11 04:48:49;;;;;;;6.07;4.53;;;;;;;;;;3592437;39;20036;-63
2021/06/11 04:51:14;;;;;;;9.40;4.75;;;17.80;99.90;;;;;;3599088;39;20024;-63
2021/06/11 04:53:41;;;;;;;12.13;4.90;;;;;;;;;;3600681;39;20031;-63
2021/06/11 04:56:09;;;;;;;5.30;4.60;;;18.20;99.90;;;;;;3598756;39;20046;-63
2021/06/11 04:58:37;;;;;;;8.38;4.40;;;;;;;;;;3595191;39;20122;-63
2021/06/11 05:01:03;;;;;;;12.40;4.93;;;18.50;99.90;;;;;;3595786;39;20019;-63
2021/06/11 05:03:29;;;;;;;5.72;4.60;;;;;;;;;;3593729;39;20391;-62
2021/06/11 05:05:56;;;;;;;13.13;6.10;;;;;;;;;;3593385;39;20039;-62
2021/06/11 05:08:21;;;;;;;9.60;6.20;;;18.80;99.90;;;;;;3593736;39;20036;-62
2021/06/11 05:10:47;;;;;;;9.25;5.78;;;19.00;99.90;;;;;;3601059;39;20212;-63
2021/06/11 05:13:13;;;;;;;8.50;5.72;;;19.20;99.90;;;;;;3594638;39;20165;-63
2021/06/11 05:15:39;;;;;;;8.18;5.50;;;;;;;;;;3593973;39;20032;-63
2021/06/11 05:18:06;;;;;;;9.13;5.82;;;;;;;;;;3585015;39;20532;-63
2021/06/11 05:20:33;;;;;;;8.60;5.70;;;;;;;;;;3595853;39;20051;-63
2021/06/11 05:22:59;;;;;;;6.65;5.30;;;;;;;;;;3597477;39;20028;-63
2021/06/11 05:25:25;;;;;;;7.15;5.00;;;;;;;;;;3598689;39;20027;-63
2021/06/11 05:27:51;;;;;;;8.82;5.32;;;20.30;99.90;;;;;;3593079;39;20535;-63
2021/06/11 05:30:18;;;;;;;6.55;4.72;;;;;;;;;;3593906;39;20105;-63
2021/06/11 05:32:45;;;;;;;9.07;4.88;;;;;;;;;;3593348;39;20024;-63
2021/06/11 05:35:12;;;;;;;7.60;4.20;;;20.90;99.90;;;;;;3597363;39;20068;-63
2021/06/11 05:37:37;;;;;;;8.55;4.18;;;21.10;99.90;;;;;;3594063;39;20027;-63
2021/06/11 05:40:04;;;;;;;7.70;4.30;;;;;;;;;;3594100;39;20032;-63
2021/06/11 05:42:31;;;;;;;8.18;4.93;;;;;;;;;;3595312;39;20040;-63
2021/06/11 05:44:58;;;;;;;5.25;4.15;;;;;;;;;;3598584;39;20120;-63
2021/06/11 05:47:24;;;;;;;6.80;4.38;;;21.40;99.90;;;;;;3600847;39;20023;-63
2021/06/11 05:49:49;;;;;;;7.63;3.75;;;21.50;99.90;;;;;;3599153;39;20028;-63
2021/06/11 05:52:15;;;;;;;7.20;4.45;;;21.60;99.90;;;;;;3598152;39;20046;-63
2021/06/11 05:54:41;;;;;;;8.23;4.20;;;21.70;99.90;;;;;;3596396;39;20287;-63
2021/06/11 05:57:07;;;;;;;8.05;3.95;;;21.80;99.30;;;;;;3594959;39;20039;-63
2021/06/11 05:59:32;;;;;;;6.15;4.10;;;21.70;99.00;;;;;;3593777;39;20048;-63
2021/06/11 06:01:58;;;;;;;11.15;4.10;;;21.50;99.80;;;;;;3590823;39;20031;-63
2021/06/11 06:04:24;;;;;;;11.27;4.28;;;21.80;99.90;;;;;;3591734;39;20039;-63
2021/06/11 06:06:50;;;;;;;7.57;4.00;;;;;;;;;;3591295;39;20865;-63
2021/06/11 06:09:16;;;;;;;10.30;4.25;;;22.10;99.40;;;;;;3592610;39;20040;-63
2021/06/11 06:11:42;;;;;;;8.80;4.10;;;;;;;;;;3592877;39;20399;-63
2021/06/11 06:14:09;;;;;;;6.35;4.10;;;;;;;;;;3594224;39;20024;-63
2021/06/11 06:16:36;;;;;;;4.65;3.58;;;;;;;;;;3594366;39;20032;-63
2021/06/11 06:19:02;;;;;;;4.63;3.55;;;22.30;98.40;;;;;;3592311;39;20051;-63
2021/06/11 06:21:30;;;;;;;7.53;3.50;;;22.40;98.40;;;;;;3594092;39;20031;-63
2021/06/11 06:24:00;;;;;;;4.47;3.42;;;22.40;98.40;;;;;;3600075;39;20039;-63
2021/06/11 06:26:27;;;;;;;5.00;3.30;;;22.40;97.90;;;;;;3591534;39;20080;-63
2021/06/11 06:28:53;;;;;;;4.50;3.25;;;;;;;;;;3593767;39;20412;-63
2021/06/11 06:31:19;;;;;;;3.95;3.00;;;22.80;95.70;;;;;;3594244;39;20059;-63
2021/06/11 06:33:45;;;;;;;7.15;3.00;;;23.00;95.10;;;;;;3595537;39;20066;-63
2021/06/11 06:36:11;;;;;;;7.20;3.20;;;23.10;94.90;;;;;;3593330;39;20032;-63
2021/06/11 06:38:37;;;;;;;7.57;3.58;;;23.20;95.20;;;;;;3592312;39;20027;-63
2021/06/11 06:41:03;;;;;;;4.75;3.10;;;23.20;96.00;;;;;;3590169;39;20043;-63
2021/06/11 06:43:30;;;;;;;12.20;7.35;;;23.40;95.30;;;;;;3596116;39;20027;-63
2021/06/11 06:45:57;;;;;;;5.95;3.60;;;;;;;;;;3596035;39;20024;-61
2021/06/11 06:48:23;;;;;;;4.82;3.55;;;23.40;93.90;;;;;;3593031;39;20016;-61
2021/06/11 06:50:49;;;;;;;7.15;4.80;;;;;;;;;;3594369;39;20028;-60
2021/06/11 06:53:18;;;;;;;4.85;3.00;;;23.60;94.00;;;;;;3595545;39;20590;-60
2021/06/11 06:55:45;;;;;;;7.93;3.58;;;23.70;93.50;;;;;;3592974;39;20740;-61
2021/06/11 06:58:11;;;;;;;6.13;3.40;;;;;;;;;;3595538;39;20337;-60
2021/06/11 07:00:37;;;;;;;12.43;3.80;;;;;;;;;;3589989;39;20525;-60
2021/06/11 07:03:03;;;;;;;5.22;3.33;;;23.80;92.80;;;;;;3591698;39;20028;-60
2021/06/11 07:05:29;;;;;;;4.47;3.08;;;23.90;92.70;;;;;;3592840;39;20028;-60
2021/06/11 07:07:55;;;;;;;5.70;3.15;;;23.90;91.70;;;;;;3594207;39;20043;-60
2021/06/11 07:10:21;;;;;;;5.35;3.38;;;;;;;;;;3594980;39;20036;-60
2021/06/11 07:12:48;;;;;;;8.20;3.33;;;;;;;;;;3596340;39;20333;-60
2021/06/11 07:15:13;;;;;;;9.07;3.20;;;24.50;92.20;;;;;;3596502;39;20024;-61
2021/06/11 07:17:40;;;;;;;7.15;2.92;;;24.10;91.80;;;;;;3599976;39;20067;-60
2021/06/11 07:20:07;;;;;;;2.90;2.40;;;;;;;;;;3598865;39;20028;-61
2021/06/11 07:22:33;;;;;;;6.05;3.10;;;24.40;91.30;;;;;;3599267;39;20411;-61
2021/06/11 07:25:02;;;;;;;2.97;2.25;;;24.60;91.00;;;;;;3596935;39;20028;-61
2021/06/11 07:27:32;;;;;;;3.70;2.60;;;24.70;90.00;;;;;;3596056;39;20724;-62
2021/06/11 07:30:02;;;;;;;4.90;2.60;;;;;;;;;;3592831;39;20047;-62
2021/06/11 07:32:29;;;;;;;4.00;2.58;;;24.80;89.60;;;;;;3591257;39;20048;-61
2021/06/11 07:34:54;;;;;;;2.92;2.40;;;24.90;90.20;;;;;;3598810;39;20136;-61
2021/06/11 07:37:20;;;;;;;3.75;2.65;;;24.80;85.90;;;;;;3592369;39;20039;-61
2021/06/11 07:39:46;;;;;;;7.85;2.97;;;24.90;87.40;;;;;;3588497;39;20138;-61
2021/06/11 07:42:12;;;;;;;5.20;3.22;;;25.00;87.70;;;;;;3592744;39;20635;-61
2021/06/11 07:44:38;;;;;;;9.48;5.57;;;24.90;86.10;;;;;;3591582;39;20545;-62
2021/06/11 07:47:05;;;;;;;6.90;4.35;;;;;;;;;;3595122;39;20051;-62
2021/06/11 07:49:31;;;;;;;6.68;2.90;;;24.90;87.80;;;;;;3595069;39;20043;-61
2021/06/11 07:51:58;;;;;;;10.00;3.33;;;;;;;;;;3592810;39;20036;-62
2021/06/11 07:54:24;;;;;;;5.80;2.90;;;25.30;86.10;;;;;;3591036;39;20068;-62
2021/06/11 07:56:50;;;;;;;8.40;3.65;;;25.60;81.70;;;;;;3596475;39;20310;-62
2021/06/11 07:59:15;;;;;;;6.47;4.38;;;25.60;80.70;;;;;;3591611;39;20071;-62
2021/06/11 08:01:41;;;;;;;9.93;3.22;;;25.60;79.60;;;;;;3593974;39;20032;-62
2021/06/11 08:04:07;;;;;;;19.00;10.63;;;25.60;82.20;;;;;;3593835;39;20035;-62
2021/06/11 08:06:33;;;;;;;11.23;3.80;;;25.80;80.30;;;;;;3595528;39;20119;-61
2021/06/11 08:08:59;;;;;;;6.32;3.30;;;25.90;80.70;;;;;;3593821;39;20044;-61
2021/06/11 08:11:24;;;;;;;5.90;3.60;;;25.90;80.30;;;;;;3592084;39;20035;-62
2021/06/11 08:13:50;;;;;;;3.35;2.83;;;25.90;81.00;;;;;;3597923;39;20032;-61
2021/06/11 08:16:16;;;;;;;5.10;3.13;;;26.10;79.70;;;;;;3598120;39;20044;-62
2021/06/11 08:18:42;;;;;;;4.85;2.95;;;26.20;79.30;;;;;;3591009;39;20028;-61
2021/06/11 08:21:08;;;;;;;4.93;2.90;;;26.50;80.30;;;;;;3593756;39;20421;-61
2021/06/11 08:23:34;;;;;;;9.73;3.67;;;26.90;77.60;;;;;;3593167;39;20629;-61
2021/06/11 08:25:59;;;;;;;4.55;3.17;;;27.00;77.00;;;;;;3594822;39;20027;-61
2021/06/11 08:28:25;;;;;;;4.93;3.05;;;27.10;77.80;;;;;;3595394;39;20040;-62
2021/06/11 08:30:51;;;;;;;7.97;3.75;;;27.60;77.10;;;;;;3595428;39;20051;-62
2021/06/11 08:33:17;;;;;;;6.82;3.40;;;27.70;73.50;;;;;;3595017;39;20416;-61
2021/06/11 08:35:42;;;;;;;5.95;3.10;;;28.00;73.40;;;;;;3592221;39;20637;-61
2021/06/11 08:38:08;;;;;;;8.13;4.03;;;28.10;73.70;;;;;;3595168;39;20031;-62
2021/06/11 08:40:34;;;;;;;8.80;3.38;;;28.30;76.50;;;;;;3595207;39;20039;-61
2021/06/11 08:43:00;;;;;;;4.50;3.05;;;28.50;73.00;;;;;;3594490;39;20020;-61
2021/06/11 08:45:26;;;;;;;8.45;3.50;;;28.60;71.70;;;;;;3597996;39;20032;-62
2021/06/11 08:47:54;;;;;;;4.07;3.20;;;29.20;70.90;;;;;;3598437;39;20884;-62
2021/06/11 08:50:28;;;;;;;6.22;3.10;;;28.90;70.30;;;;;;3590610;39;20036;-62
2021/06/11 08:52:56;;;;;;;5.32;2.70;;;29.20;69.20;;;;;;3591353;39;20036;-62
2021/06/11 08:55:22;;;;;;;5.53;2.60;;;29.30;66.40;;;;;;3595795;39;20039;-61
2021/06/11 08:57:49;;;;;;;8.77;2.60;;;29.60;72.20;;;;;;3596105;39;20035;-61
2021/06/11 09:00:15;;;;;;;4.47;2.60;;;30.00;71.40;;;;;;3595686;39;20031;-61
2021/06/11 09:03:36;;;;;;;6.20;2.70;;;29.60;68.20;;;;;;3594135;39;20032;-61
2021/06/11 09:06:05;;;;;;;5.15;2.78;;;29.70;68.10;;;;;;3558128;40;20066;-61
2021/06/11 09:08:32;;;;;;;3.45;2.22;;;29.70;69.80;;;;;;3579486;39;20037;-62
2021/06/11 09:11:10;;;;;;;4.13;2.90;;;;;;;;;;3593467;39;20059;-61
2021/06/11 09:13:36;;;;;;;5.65;2.78;;;29.60;69.00;;;;;;3597185;39;20032;-63
2021/06/11 09:16:14;;;;;;;7.95;2.67;;;29.80;66.10;;;;;;3592713;39;20751;-61
2021/06/11 09:18:48;;;;;;;4.75;2.58;;;30.10;67.70;;;;;;3594055;39;20040;-61
2021/06/11 09:21:30;;;;;;;6.93;2.25;;;29.70;66.10;;;;;;3593308;39;20040;-61
2021/06/11 09:24:18;;;;;;;6.50;2.63;;;29.50;68.10;;;;;;3592106;39;20052;-62
2021/06/11 09:27:08;;;;;;;5.75;3.13;;;29.40;64.70;;;;;;3589992;39;20083;-62
2021/06/11 09:29:50;;;;;;;6.90;3.20;;;28.40;66.30;;;;;;3589505;39;20039;-62
2021/06/11 09:32:27;;;;;;;5.15;3.53;;;28.20;66.00;;;;;;3596594;39;20032;-62
2021/06/11 09:35:03;;;;;;;5.55;2.78;;;28.90;65.70;;;;;;3594383;39;20107;-62
2021/06/11 09:37:33;;;;;;;5.03;2.50;;;29.60;64.50;;;;;;3594093;39;20044;-61
2021/06/11 09:40:10;;;;;;;5.93;2.55;;;29.70;63.90;;;;;;3595404;39;20035;-62
2021/06/11 09:42:38;;;;;;;5.40;2.60;;;29.90;64.00;;;;;;3595896;39;20036;-62
2021/06/11 09:45:09;;;;;;;4.22;2.65;;;29.60;63.60;;;;;;3599433;39;20019;-61
2021/06/11 09:47:39;;;;;;;5.55;3.00;;;29.20;64.60;;;;;;3590475;39;20233;-62
2021/06/11 09:50:17;;;;;;;7.00;2.72;;;29.40;63.90;;;;;;3591304;39;20120;-62
2021/06/11 09:52:58;;;;;;;8.63;3.05;;;29.70;63.60;;;;;;3593057;39;20690;-62
2021/06/11 09:55:28;;;;;;;6.00;3.22;;;30.20;61.00;;;;;;3595675;39;20032;-62
2021/06/11 09:58:24;;;;;;;12.13;3.25;;;30.30;62.50;;;;;;3595402;39;20418;-62
2021/06/11 10:01:01;;;;;;;4.30;2.50;;;30.00;61.00;;;;;;3584962;39;20048;-62
2021/06/11 10:03:29;;;;;;;5.80;2.92;;;29.80;62.00;;;;;;3599706;39;20031;-62
2021/06/11 10:05:56;;;;;;;5.50;3.38;;;30.10;63.40;;;;;;3598903;39;20039;-62
2021/06/11 10:08:23;;;;;;;5.80;2.90;;;30.10;60.90;;;;;;3593530;39;20345;-62
2021/06/11 10:10:52;;;;;;;4.30;2.28;;;29.50;62.80;;;;;;3597701;39;20035;-62
2021/06/11 10:13:19;;;;;;;8.07;3.00;;;29.00;63.20;;;;;;3594754;39;20643;-62
2021/06/11 10:15:47;;;;;;;7.18;2.35;;;29.40;63.70;;;;;;3595714;39;20035;-62
2021/06/11 10:18:13;;;;;;;6.05;3.17;;;29.80;62.00;;;;;;3596101;39;20027;-62
2021/06/11 10:20:41;;;;;;;7.50;3.63;;;30.30;62.60;;;;;;3590642;39;20035;-62
2021/06/11 10:23:10;;;;;;;4.32;2.70;;;30.70;60.70;;;;;;3589926;39;20043;-62
2021/06/11 10:25:40;;;;;;;9.45;5.32;;;30.90;60.90;;;;;;3594038;39;20032;-62
2021/06/11 10:28:07;;;;;;;6.75;3.03;;;30.60;58.90;;;;;;3598377;39;20043;-61
2021/06/11 10:30:34;;;;;;;3.53;2.55;;;;;;;;;;3596373;39;20024;-62
2021/06/11 10:33:00;;;;;;;6.35;2.70;;;;;;;;;;3595532;39;20020;-62
2021/06/11 10:35:41;;;;;;;8.98;2.65;;;;;;;;;;3595553;39;20091;-62
2021/06/11 10:38:12;;;;;;;4.15;2.35;;;;;;;;;;3598658;39;20124;-62
2021/06/11 10:40:39;;;;;;;5.50;2.20;;;31.50;58.20;;;;;;3599832;39;20035;-62
2021/06/11 10:43:26;;;;;;;4.82;2.45;;;31.40;57.00;;;;;;3592153;39;20074;-62
2021/06/11 10:45:56;;;;;;;5.78;2.60;;;30.80;57.10;;;;;;3598418;39;20043;-62
2021/06/11 10:48:22;;;;;;;5.22;2.25;;;;;;;;;;3591967;39;20429;-62
2021/06/11 10:50:48;;;;;;;7.05;2.65;;;;;;;;;;3594725;39;20086;-62
2021/06/11 10:53:28;;;;;;;6.05;2.05;;;30.00;59.40;;;;;;3596349;39;20054;-62
2021/06/11 10:56:18;;;;;;;8.20;2.25;;;30.40;58.20;;;;;;3593881;39;20039;-62
2021/06/11 10:58:45;;;;;;;6.55;2.28;;;30.90;58.20;;;;;;3592292;39;20143;-62
2021/06/11 11:01:50;;;;;;;5.10;2.30;;;31.00;56.70;;;;;;3588370;39;20032;-62
2021/06/11 11:04:31;;;;;;;6.43;2.30;;;31.00;57.30;;;;;;3590904;39;20040;-62
2021/06/11 11:06:58;;;;;;;4.03;2.30;;;;;;;;;;3596124;39;20035;-61
2021/06/11 11:09:51;;;;;;;8.68;2.03;;;30.80;57.10;;;;;;3595282;39;20052;-62
2021/06/11 11:12:17;;;;;;;5.63;1.90;;;;;;;;;;3592953;39;20032;-62
2021/06/11 11:14:43;;;;;;;3.70;2.30;;;31.40;57.40;;;;;;3592161;39;20016;-62
2021/06/11 11:17:11;;;;;;;4.68;2.20;;;31.20;56.40;;;;;;3591139;39;20291;-62
2021/06/11 11:19:53;;;;;;;9.75;2.47;;;30.70;56.30;;;;;;3596900;39;20027;-62
2021/06/11 11:22:37;;;;;;;7.18;2.33;;;30.60;57.50;;;;;;3597686;39;20055;-62
2021/06/11 11:25:13;;;;;;;3.47;1.88;;;31.20;56.30;;;;;;3591510;39;20028;-62
2021/06/11 11:27:39;;;;;;;2.97;1.77;;;;;;;;;;3594665;39;20097;-62
2021/06/11 11:30:06;;;;;;;7.70;2.20;;;32.10;55.50;;;;;;3591486;39;20028;-62
2021/06/11 11:32:32;;;;;;;5.82;2.60;;;;;;;;;;3592671;39;20425;-62
2021/06/11 11:34:59;;;;;;;4.25;2.30;;;;;;;;;;3589941;39;20057;-62
2021/06/11 11:37:25;;;;;;;4.28;2.10;;;31.50;55.30;;;;;;3594542;39;20020;-62
2021/06/11 11:39:51;;;;;;;8.32;2.50;;;;;;;;;;3597041;39;20548;-62
2021/06/11 11:42:18;;;;;;;5.45;1.73;;;;;;;;;;3590424;39;20033;-62
2021/06/11 11:44:44;;;;;;;3.58;1.92;;;32.40;55.00;;;;;;3593195;39;20024;-62
2021/06/11 11:47:10;;;;;;;7.90;2.05;;;;;;;;;;3593825;39;20309;-62
2021/06/11 11:49:36;;;;;;;16.10;10.45;;;32.30;55.30;;;;;;3591513;39;20028;-62
2021/06/11 11:52:03;;;;;;;7.10;2.25;;;32.30;54.10;;;;;;3591723;39;20113;-62
2021/06/11 11:54:31;;;;;;;8.45;4.15;;;31.60;54.10;;;;;;3588204;39;20039;-63
2021/06/11 11:56:58;;;;;;;6.38;2.92;;;32.10;55.40;;;;;;3589903;39;20024;-62
2021/06/11 11:59:24;;;;;;;3.78;2.20;;;;;;;;;;3589299;39;20032;-62
2021/06/11 12:01:50;;;;;;;6.40;1.88;;;32.40;54.60;;;;;;3592211;39;20017;-62
2021/06/11 12:04:16;;;;;;;8.18;1.90;;;;;;;;;;3591959;39;20047;-62
2021/06/11 12:06:43;;;;;;;4.32;1.70;;;33.10;52.30;;;;;;3594429;39;20036;-62
2021/06/11 12:09:09;;;;;;;5.35;1.73;;;;;;;;;;3598303;39;20124;-63
2021/06/11 12:11:35;;;;;;;3.35;1.70;;;33.00;54.00;;;;;;3598344;39;20036;-62
2021/06/11 12:14:02;;;;;;;2.50;1.67;;;32.60;54.20;;;;;;3592066;39;20063;-61
2021/06/11 12:16:29;;;;;;;2.53;1.50;;;33.30;53.80;;;;;;3592414;39;20020;-62
2021/06/11 12:18:55;;;;;;;3.47;1.73;;;33.90;54.40;;;;;;3593546;39;20535;-62
2021/06/11 12:21:21;;;;;;;2.45;1.70;;;;;;;;;;3594432;39;20401;-62
2021/06/11 12:23:47;;;;;;;2.50;1.60;;;33.80;56.10;;;;;;3596918;39;20044;-62
2021/06/11 12:26:12;;;;;;;2.45;1.65;;;32.50;56.10;;;;;;3598335;39;20444;-62
2021/06/11 12:28:38;;;;;;;5.68;2.00;;;31.70;55.20;;;;;;3599413;39;20046;-62
2021/06/11 12:31:04;;;;;;;5.82;2.17;;;30.60;56.20;;;;;;3600311;39;20797;-62
2021/06/11 12:33:30;;;;;;;4.18;2.05;;;30.60;55.60;;;;;;3601156;39;20466;-62
2021/06/11 12:35:56;;;;;;;5.63;2.10;;;30.90;57.20;;;;;;3599055;39;20039;-62
2021/06/11 12:38:22;;;;;;;5.82;2.28;;;30.80;57.80;;;;;;3595741;39;20028;-62
2021/06/11 12:40:49;;;;;;;4.13;1.90;;;31.00;55.70;;;;;;3595222;39;20034;-62
2021/06/11 12:43:19;;;;;;;2.50;2.15;;;31.50;57.10;;;;;;3596449;39;20040;-62
2021/06/11 12:45:45;;;;;;;3.95;1.88;;;31.60;56.50;;;;;;3594979;39;20036;-62
2021/06/11 12:48:11;;;;;;;5.43;2.22;;;31.00;58.40;;;;;;3592417;39;20442;-61
2021/06/11 12:50:40;;;;;;;8.05;2.28;;;31.50;58.20;;;;;;3599998;39;20083;-61
2021/06/11 12:53:06;;;;;;;2.28;1.80;;;31.20;58.30;;;;;;3599625;39;20064;-61
2021/06/11 12:55:35;;;;;;;3.50;1.80;;;31.70;57.00;;;;;;3591025;39;20502;-61
2021/06/11 12:58:00;;;;;;;3.55;1.92;;;32.30;55.00;;;;;;3592736;39;20033;-61
2021/06/11 13:00:26;;;;;;;3.50;1.70;;;31.60;56.00;;;;;;3593283;39;20034;-61
2021/06/11 13:02:52;;;;;;;4.90;1.98;;;31.80;54.80;;;;;;3594142;39;20028;-61
2021/06/11 13:05:21;;;;;;;3.10;2.10;;;31.90;54.70;;;;;;3592278;39;20031;-61
2021/06/11 13:07:48;;;;;;;3.75;2.38;;;31.60;58.40;;;;;;3591699;39;20028;-62
2021/06/11 13:10:15;;;;;;;2.60;1.67;;;32.50;57.30;;;;;;3590678;39;20035;-63
2021/06/11 13:12:40;;;;;;;1.80;1.65;;;33.40;57.40;;;;;;3592072;39;20851;-62
2021/06/11 13:15:07;;;;;;;5.15;1.40;;;33.70;52.20;;;;;;3597252;39;20102;-62
2021/06/11 13:17:32;;;;;;;4.88;2.10;;;32.80;51.40;;;;;;3596579;39;20068;-61
2021/06/11 13:19:58;;;;;;;9.05;3.42;;;31.90;65.40;;;;;;3593418;39;20694;-62
2021/06/11 13:22:24;;;;;;;6.47;2.20;;;31.70;53.90;;;;;;3594213;39;20032;-62
2021/06/11 13:24:50;;;;;;;2.45;1.92;;;31.60;55.50;;;;;;3592010;39;20020;-62
2021/06/11 13:27:16;;;;;;;5.20;2.00;;;;;;;;;;3591532;39;20124;-61
2021/06/11 13:29:42;;;;;;;3.03;1.83;;;33.50;54.50;;;;;;3597344;39;20141;-61